createdAt,value
2017-02-11T00:00:15.758Z,58
2017-02-11T00:01:21.784Z,58
2017-02-11T00:02:27.811Z,58
2017-02-11T00:03:33.835Z,58
2017-02-11T00:04:39.858Z,58
2017-02-11T00:05:45.884Z,58
2017-02-11T00:06:51.910Z,58
2017-02-11T00:07:57.932Z,58
2017-02-11T00:09:03.950Z,58
2017-02-11T00:10:09.968Z,58
2017-02-11T00:11:15.991Z,58
2017-02-11T00:12:22.016Z,58
2017-02-11T00:13:28.035Z,58
2017-02-11T00:14:34.056Z,58
2017-02-11T00:15:39.411Z,58
2017-02-11T00:16:45.435Z,58
2017-02-11T00:17:51.459Z,58
2017-02-11T00:18:57.483Z,58
2017-02-11T00:20:03.507Z,58
2017-02-11T00:21:09.528Z,58
2017-02-11T00:22:15.550Z,57
2017-02-11T00:23:21.579Z,57
2017-02-11T00:24:27.596Z,57
2017-02-11T00:25:33.620Z,57
2017-02-11T00:26:39.645Z,57
2017-02-11T00:27:45.668Z,57
2017-02-11T00:28:51.690Z,57
2017-02-11T00:29:57.708Z,57
2017-02-11T00:31:02.633Z,57
2017-02-11T00:32:08.651Z,57
2017-02-11T00:33:14.673Z,57
2017-02-11T00:34:20.707Z,57
2017-02-11T00:35:26.733Z,57
2017-02-11T00:36:32.131Z,57
2017-02-11T00:37:37.451Z,57
2017-02-11T00:38:43.477Z,57
2017-02-11T00:39:49.500Z,57
2017-02-11T00:40:54.861Z,57
2017-02-11T00:42:00.217Z,57
2017-02-11T00:43:05.577Z,57
2017-02-11T00:44:11.600Z,57
2017-02-11T00:45:16.964Z,57
2017-02-11T00:46:22.315Z,57
2017-02-11T00:47:28.338Z,57
2017-02-11T00:48:34.360Z,57
2017-02-11T00:49:40.383Z,57
2017-02-11T00:50:46.410Z,57
2017-02-11T00:51:52.427Z,57
2017-02-11T00:52:58.446Z,57
2017-02-11T00:54:04.466Z,57
2017-02-11T00:55:10.492Z,57
2017-02-11T00:56:16.513Z,57
2017-02-11T00:57:22.528Z,57
2017-02-11T00:58:28.551Z,57
2017-02-11T00:59:34.573Z,57
2017-02-11T01:00:40.596Z,57
2017-02-11T01:01:46.624Z,57
2017-02-11T01:02:52.640Z,57
2017-02-11T01:03:58.664Z,57
2017-02-11T01:05:04.023Z,58
2017-02-11T01:06:10.047Z,58
2017-02-11T01:07:16.061Z,58
2017-02-11T01:08:21.420Z,58
2017-02-11T01:09:26.779Z,58
2017-02-11T01:10:32.811Z,58
2017-02-11T01:11:38.829Z,58
2017-02-11T01:12:44.195Z,58
2017-02-11T01:13:50.221Z,58
2017-02-11T01:14:54.483Z,58
2017-02-11T01:15:59.390Z,58
2017-02-11T01:17:04.316Z,58
2017-02-11T01:18:10.342Z,58
2017-02-11T01:19:16.363Z,58
2017-02-11T01:20:21.724Z,58
2017-02-11T01:21:27.745Z,58
2017-02-11T01:22:33.773Z,58
2017-02-11T01:23:39.790Z,58
2017-02-11T01:24:45.816Z,58
2017-02-11T01:25:51.178Z,58
2017-02-11T01:26:55.435Z,58
2017-02-11T01:28:00.355Z,58
2017-02-11T01:29:06.382Z,58
2017-02-11T01:30:12.404Z,58
2017-02-11T01:31:18.425Z,58
2017-02-11T01:32:23.773Z,58
2017-02-11T01:33:28.694Z,58
2017-02-11T01:34:34.718Z,58
2017-02-11T01:35:40.744Z,58
2017-02-11T01:36:45.003Z,58
2017-02-11T01:37:51.024Z,58
2017-02-11T01:38:57.050Z,58
2017-02-11T01:40:02.410Z,58
2017-02-11T01:41:08.428Z,58
2017-02-11T01:42:14.448Z,57
2017-02-11T01:43:20.467Z,57
2017-02-11T01:44:26.492Z,57
2017-02-11T01:45:32.512Z,57
2017-02-11T01:46:38.527Z,57
2017-02-11T01:47:44.545Z,57
2017-02-11T01:48:49.466Z,57
2017-02-11T01:49:55.493Z,57
2017-02-11T01:51:01.509Z,57
2017-02-11T01:52:07.532Z,57
2017-02-11T01:53:13.557Z,57
2017-02-11T01:54:19.577Z,57
2017-02-11T01:55:25.599Z,56
2017-02-11T01:56:31.615Z,57
2017-02-11T01:57:37.642Z,57
2017-02-11T01:58:43.665Z,57
2017-02-11T01:59:49.685Z,56
2017-02-11T02:00:55.710Z,56
2017-02-11T02:02:01.741Z,56
2017-02-11T02:03:07.095Z,56
2017-02-11T02:04:13.115Z,56
2017-02-11T02:05:19.136Z,56
2017-02-11T02:06:24.499Z,56
2017-02-11T02:07:30.522Z,56
2017-02-11T02:08:36.541Z,56
2017-02-11T02:09:42.561Z,56
2017-02-11T02:10:48.588Z,56
2017-02-11T02:11:54.606Z,56
2017-02-11T02:13:00.635Z,56
2017-02-11T02:14:06.658Z,56
2017-02-11T02:15:12.685Z,56
2017-02-11T02:16:18.701Z,56
2017-02-11T02:17:24.721Z,56
2017-02-11T02:18:30.750Z,56
2017-02-11T02:19:36.771Z,56
2017-02-11T02:20:42.789Z,56
2017-02-11T02:21:48.811Z,56
2017-02-11T02:22:53.735Z,56
2017-02-11T02:23:59.755Z,56
2017-02-11T02:25:05.114Z,56
2017-02-11T02:26:11.136Z,55
2017-02-11T02:27:17.168Z,55
2017-02-11T02:28:23.187Z,55
2017-02-11T02:29:29.213Z,55
2017-02-11T02:30:33.469Z,55
2017-02-11T02:31:39.492Z,56
2017-02-11T02:32:45.514Z,56
2017-02-11T02:33:51.539Z,56
2017-02-11T02:34:56.894Z,56
2017-02-11T02:36:02.910Z,55
2017-02-11T02:37:08.941Z,55
2017-02-11T02:38:14.964Z,55
2017-02-11T02:39:20.983Z,55
2017-02-11T02:40:27.003Z,55
2017-02-11T02:41:33.030Z,55
2017-02-11T02:42:39.055Z,55
2017-02-11T02:43:45.070Z,55
2017-02-11T02:44:50.428Z,55
2017-02-11T02:45:56.452Z,55
2017-02-11T02:47:02.468Z,55
2017-02-11T02:48:08.499Z,55
2017-02-11T02:49:14.526Z,55
2017-02-11T02:50:19.454Z,55
2017-02-11T02:51:25.471Z,55
2017-02-11T02:52:31.498Z,55
2017-02-11T02:53:37.523Z,55
2017-02-11T02:54:42.882Z,55
2017-02-11T02:55:48.902Z,55
2017-02-11T02:56:54.926Z,55
2017-02-11T02:58:00.952Z,55
2017-02-11T02:59:06.978Z,55
2017-02-11T03:00:12.338Z,55
2017-02-11T03:01:18.360Z,55
2017-02-11T03:02:24.390Z,55
2017-02-11T03:03:30.414Z,55
2017-02-11T03:04:36.430Z,55
2017-02-11T03:05:42.459Z,55
2017-02-11T03:06:48.478Z,55
2017-02-11T03:07:54.500Z,54
2017-02-11T03:09:00.516Z,54
2017-02-11T03:10:06.534Z,54
2017-02-11T03:11:12.555Z,54
2017-02-11T03:12:17.915Z,54
2017-02-11T03:13:23.278Z,54
2017-02-11T03:14:29.298Z,54
2017-02-11T03:15:35.319Z,54
2017-02-11T03:16:41.345Z,54
2017-02-11T03:17:47.370Z,54
2017-02-11T03:18:52.727Z,54
2017-02-11T03:19:58.746Z,54
2017-02-11T03:21:04.774Z,54
2017-02-11T03:22:10.796Z,54
2017-02-11T03:23:16.819Z,54
2017-02-11T03:24:22.843Z,54
2017-02-11T03:25:28.869Z,54
2017-02-11T03:26:34.893Z,54
2017-02-11T03:27:40.911Z,54
2017-02-11T03:28:46.932Z,54
2017-02-11T03:29:52.954Z,54
2017-02-11T03:30:58.979Z,54
2017-02-11T03:32:04.995Z,53
2017-02-11T03:33:09.924Z,53
2017-02-11T03:34:15.948Z,53
2017-02-11T03:35:20.200Z,53
2017-02-11T03:36:26.217Z,53
2017-02-11T03:37:32.241Z,53
2017-02-11T03:38:38.264Z,53
2017-02-11T03:39:44.290Z,53
2017-02-11T03:40:50.309Z,53
2017-02-11T03:41:56.333Z,53
2017-02-11T03:43:02.356Z,53
2017-02-11T03:44:07.714Z,53
2017-02-11T03:45:13.732Z,52
2017-02-11T03:46:19.754Z,52
2017-02-11T03:47:25.780Z,52
2017-02-11T03:48:31.807Z,52
2017-02-11T03:49:37.828Z,52
2017-02-11T03:50:43.854Z,52
2017-02-11T03:51:49.876Z,52
2017-02-11T03:52:55.894Z,52
2017-02-11T03:54:01.912Z,52
2017-02-11T03:55:07.939Z,52
2017-02-11T03:56:13.966Z,52
2017-02-11T03:57:19.987Z,52
2017-02-11T03:58:26.015Z,52
2017-02-11T03:59:32.035Z,52
2017-02-11T04:00:38.058Z,52
2017-02-11T04:01:44.071Z,52
2017-02-11T04:02:49.435Z,52
2017-02-11T04:03:55.458Z,52
2017-02-11T04:05:01.479Z,52
2017-02-11T04:06:07.500Z,52
2017-02-11T04:07:13.530Z,52
2017-02-11T04:08:19.556Z,52
2017-02-11T04:09:24.909Z,52
2017-02-11T04:10:30.931Z,52
2017-02-11T04:11:36.948Z,52
2017-02-11T04:12:42.978Z,52
2017-02-11T04:13:48.996Z,52
2017-02-11T04:14:55.019Z,52
2017-02-11T04:16:01.049Z,51
2017-02-11T04:17:07.072Z,51
2017-02-11T04:18:13.087Z,51
2017-02-11T04:19:19.111Z,51
2017-02-11T04:20:25.129Z,51
2017-02-11T04:21:31.148Z,51
2017-02-11T04:22:37.172Z,50
2017-02-11T04:23:43.192Z,50
2017-02-11T04:24:47.454Z,49
2017-02-11T04:25:53.477Z,49
2017-02-11T04:26:59.501Z,49
2017-02-11T04:28:05.524Z,48
2017-02-11T04:29:11.545Z,48
2017-02-11T04:30:17.562Z,48
2017-02-11T04:31:23.586Z,48
2017-02-11T04:32:29.606Z,47
2017-02-11T04:33:35.632Z,47
2017-02-11T04:34:41.653Z,47
2017-02-11T04:35:47.676Z,47
2017-02-11T04:36:53.701Z,47
2017-02-11T04:37:59.068Z,47
2017-02-11T04:39:03.992Z,47
2017-02-11T04:40:10.010Z,48
2017-02-11T04:41:16.029Z,48
2017-02-11T04:42:21.396Z,48
2017-02-11T04:43:26.755Z,48
2017-02-11T04:44:32.776Z,47
2017-02-11T04:45:38.803Z,47
2017-02-11T04:46:44.831Z,47
2017-02-11T04:47:50.847Z,47
2017-02-11T04:48:56.865Z,47
2017-02-11T04:50:02.232Z,47
2017-02-11T04:51:08.250Z,47
2017-02-11T04:52:14.277Z,47
2017-02-11T04:53:20.306Z,47
2017-02-11T04:54:26.332Z,47
2017-02-11T04:55:32.349Z,47
2017-02-11T04:56:38.367Z,47
2017-02-11T04:57:44.391Z,47
2017-02-11T04:58:50.413Z,47
2017-02-11T04:59:56.431Z,47
2017-02-11T05:01:02.461Z,47
2017-02-11T05:02:08.480Z,46
2017-02-11T05:03:14.499Z,46
2017-02-11T05:04:20.517Z,46
2017-02-11T05:05:26.546Z,46
2017-02-11T05:06:32.573Z,46
2017-02-11T05:07:38.594Z,46
2017-02-11T05:08:44.615Z,46
2017-02-11T05:09:50.642Z,46
2017-02-11T05:10:56.667Z,46
2017-02-11T05:12:02.688Z,46
2017-02-11T05:13:08.712Z,45
2017-02-11T05:14:14.731Z,45
2017-02-11T05:15:20.757Z,45
2017-02-11T05:16:26.787Z,44
2017-02-11T05:17:32.799Z,44
2017-02-11T05:18:38.819Z,44
2017-02-11T05:19:44.844Z,44
2017-02-11T05:20:50.877Z,44
2017-02-11T05:21:56.893Z,44
2017-02-11T05:23:02.917Z,44
2017-02-11T05:24:08.938Z,43
2017-02-11T05:25:13.631Z,43
2017-02-11T05:26:19.659Z,42
2017-02-11T05:27:25.684Z,42
2017-02-11T05:28:31.710Z,42
2017-02-11T05:29:37.729Z,42
2017-02-11T05:30:43.763Z,42
2017-02-11T05:31:49.777Z,42
2017-02-11T05:32:55.800Z,42
2017-02-11T05:34:01.158Z,42
2017-02-11T05:35:07.189Z,42
2017-02-11T05:36:13.216Z,42
2017-02-11T05:37:19.230Z,42
2017-02-11T05:38:25.246Z,41
2017-02-11T05:39:31.267Z,41
2017-02-11T05:40:36.631Z,41
2017-02-11T05:41:42.651Z,41
2017-02-11T05:42:48.678Z,41
2017-02-11T05:43:54.699Z,41
2017-02-11T05:45:00.060Z,41
2017-02-11T05:46:04.980Z,41
2017-02-11T05:47:11.003Z,41
2017-02-11T05:48:17.030Z,41
2017-02-11T05:49:22.389Z,41
2017-02-11T05:50:28.405Z,41
2017-02-11T05:51:34.430Z,41
2017-02-11T05:52:40.452Z,41
2017-02-11T05:53:46.473Z,41
2017-02-11T05:54:52.503Z,41
2017-02-11T05:55:58.526Z,41
2017-02-11T05:57:04.543Z,41
2017-02-11T05:58:10.557Z,41
2017-02-11T05:59:16.584Z,41
2017-02-11T06:00:22.605Z,41
2017-02-11T06:01:28.628Z,41
2017-02-11T06:02:34.649Z,41
2017-02-11T06:03:40.672Z,40
2017-02-11T06:04:46.694Z,37
2017-02-11T06:05:52.059Z,39
2017-02-11T06:06:58.083Z,39
2017-02-11T06:08:03.446Z,39
2017-02-11T06:09:09.462Z,37
2017-02-11T06:10:15.491Z,36
2017-02-11T06:11:21.513Z,36
2017-02-11T06:12:27.539Z,36
2017-02-11T06:13:33.562Z,36
2017-02-11T06:14:39.585Z,34
2017-02-11T06:15:45.609Z,33
2017-02-11T06:16:50.974Z,32
2017-02-11T06:17:56.990Z,31
2017-02-11T06:19:03.009Z,30
2017-02-11T06:20:09.029Z,32
2017-02-11T06:21:15.053Z,32
2017-02-11T06:22:21.076Z,30
2017-02-11T06:23:27.095Z,30
2017-02-11T06:24:33.112Z,32
2017-02-11T06:25:39.132Z,32
2017-02-11T06:26:45.154Z,32
2017-02-11T06:27:51.173Z,32
2017-02-11T06:28:57.188Z,32
2017-02-11T06:30:03.214Z,32
2017-02-11T06:31:08.576Z,33
2017-02-11T06:32:13.493Z,33
2017-02-11T06:33:18.417Z,33
2017-02-11T06:34:24.437Z,33
2017-02-11T06:35:29.795Z,33
2017-02-11T06:36:35.945Z,34
2017-02-11T06:41:46.388Z,34
2017-02-11T06:42:51.740Z,33
2017-02-11T06:43:58.100Z,33
2017-02-11T06:45:09.200Z,32
2017-02-11T06:46:14.959Z,33
2017-02-11T06:47:20.966Z,32
2017-02-11T06:48:26.184Z,33
2017-02-11T06:49:31.547Z,33
2017-02-11T06:50:37.538Z,32
2017-02-11T06:51:42.446Z,30
2017-02-11T06:52:48.471Z,30
2017-02-11T06:53:54.476Z,30
2017-02-11T06:55:00.503Z,30
2017-02-11T06:56:06.542Z,30
2017-02-11T06:57:12.633Z,30
2017-02-11T06:58:18.570Z,30
2017-02-11T06:59:24.568Z,30
2017-02-11T07:00:29.934Z,30
2017-02-11T07:01:35.930Z,30
2017-02-11T07:02:41.944Z,30
2017-02-11T07:03:47.935Z,30
2017-02-11T07:04:53.962Z,30
2017-02-11T07:06:00.180Z,30
2017-02-11T07:07:05.090Z,30
2017-02-11T07:08:11.083Z,30
2017-02-11T07:09:17.084Z,30
2017-02-11T07:10:22.429Z,30
2017-02-11T07:11:28.446Z,30
2017-02-11T07:12:34.457Z,30
2017-02-11T07:13:40.470Z,30
2017-02-11T07:14:46.471Z,30
2017-02-11T07:15:51.806Z,30
2017-02-11T07:16:57.996Z,30
2017-02-11T07:18:03.214Z,30
2017-02-11T07:19:09.176Z,30
2017-02-11T07:20:15.201Z,30
2017-02-11T07:21:21.188Z,30
2017-02-11T07:22:27.197Z,30
2017-02-11T07:23:32.542Z,30
2017-02-11T07:24:38.562Z,30
2017-02-11T07:25:44.569Z,30
2017-02-11T07:26:50.563Z,30
2017-02-11T07:27:56.561Z,30
2017-02-11T07:29:02.581Z,30
2017-02-11T07:30:08.588Z,30
2017-02-11T07:31:14.596Z,30
2017-02-11T07:32:20.589Z,30
2017-02-11T07:33:26.620Z,30
2017-02-11T07:34:32.629Z,30
2017-02-11T07:35:38.681Z,30
2017-02-11T07:36:44.159Z,30
2017-02-11T07:37:50.143Z,30
2017-02-11T07:38:56.148Z,30
2017-02-11T07:40:02.233Z,30
2017-02-11T07:41:08.234Z,30
2017-02-11T07:42:14.344Z,30
2017-02-11T07:43:20.349Z,30
2017-02-11T07:44:26.355Z,30
2017-02-11T07:45:32.346Z,30
2017-02-11T07:46:37.253Z,30
2017-02-11T07:47:43.253Z,30
2017-02-11T07:48:49.253Z,30
2017-02-11T07:49:55.270Z,30
2017-02-11T07:51:01.273Z,30
2017-02-11T07:52:07.286Z,30
2017-02-11T07:53:13.280Z,30
2017-02-11T07:54:19.285Z,30
2017-02-11T07:55:25.288Z,30
2017-02-11T07:56:31.285Z,30
2017-02-11T07:57:36.627Z,30
2017-02-11T07:58:42.635Z,30
2017-02-11T07:59:47.972Z,30
2017-02-11T08:00:52.874Z,30
2017-02-11T08:01:58.879Z,30
2017-02-11T08:03:04.883Z,30
2017-02-11T08:04:10.873Z,30
2017-02-11T08:05:16.870Z,30
2017-02-11T08:06:22.875Z,30
2017-02-11T08:07:28.869Z,30
2017-02-11T08:08:34.902Z,30
2017-02-11T08:09:40.390Z,30
2017-02-11T08:10:46.393Z,30
2017-02-11T08:11:52.396Z,30
2017-02-11T08:12:58.397Z,30
2017-02-11T08:14:04.398Z,30
2017-02-11T08:15:10.411Z,30
2017-02-11T08:16:15.745Z,30
2017-02-11T08:17:21.745Z,30
2017-02-11T08:18:27.744Z,30
2017-02-11T08:19:33.747Z,30
2017-02-11T08:20:39.749Z,30
2017-02-11T08:21:45.746Z,30
2017-02-11T08:22:51.744Z,30
2017-02-11T08:23:57.085Z,30
2017-02-11T08:25:03.086Z,30
2017-02-11T08:26:09.084Z,30
2017-02-11T08:27:15.084Z,30
2017-02-11T08:28:21.088Z,30
2017-02-11T08:29:27.088Z,30
2017-02-11T08:30:33.093Z,30
2017-02-11T08:31:39.102Z,30
2017-02-11T08:32:45.103Z,29
2017-02-11T08:33:51.105Z,29
2017-02-11T08:34:57.103Z,29
2017-02-11T08:36:02.444Z,29
2017-02-11T08:37:08.587Z,29
2017-02-11T08:38:14.588Z,29
2017-02-11T08:39:20.586Z,29
2017-02-11T08:40:26.592Z,29
2017-02-11T08:41:32.593Z,29
2017-02-11T08:42:38.596Z,29
2017-02-11T08:43:43.940Z,29
2017-02-11T08:44:49.944Z,29
2017-02-11T08:45:55.940Z,29
2017-02-11T08:47:01.283Z,29
2017-02-11T08:48:07.284Z,29
2017-02-11T08:49:13.289Z,29
2017-02-11T08:50:19.290Z,29
2017-02-11T08:51:25.291Z,29
2017-02-11T08:52:31.290Z,29
2017-02-11T08:53:37.292Z,29
2017-02-11T08:54:43.287Z,29
2017-02-11T08:55:47.526Z,29
2017-02-11T08:56:53.519Z,29
2017-02-11T08:57:59.524Z,29
2017-02-11T08:59:05.525Z,29
2017-02-11T09:00:11.525Z,29
2017-02-11T09:01:17.524Z,29
2017-02-11T09:02:23.528Z,29
2017-02-11T09:03:28.870Z,29
2017-02-11T09:04:34.868Z,29
2017-02-11T09:05:40.873Z,29
2017-02-11T09:06:46.873Z,29
2017-02-11T09:07:51.773Z,29
2017-02-11T09:08:57.772Z,29
2017-02-11T09:10:03.775Z,29
2017-02-11T09:11:09.775Z,29
2017-02-11T09:12:15.779Z,29
2017-02-11T09:13:21.772Z,29
2017-02-11T09:14:27.772Z,29
2017-02-11T09:15:33.776Z,29
2017-02-11T09:16:39.781Z,29
2017-02-11T09:17:45.807Z,29
2017-02-11T09:18:51.788Z,29
2017-02-11T09:19:56.686Z,29
2017-02-11T09:21:02.689Z,29
2017-02-11T09:22:07.589Z,29
2017-02-11T09:23:13.582Z,29
2017-02-11T09:24:19.584Z,29
2017-02-11T09:25:25.586Z,29
2017-02-11T09:26:31.586Z,28
2017-02-11T09:27:37.589Z,29
2017-02-11T09:28:43.589Z,29
2017-02-11T09:29:49.589Z,29
2017-02-11T09:30:55.590Z,29
2017-02-11T09:32:01.588Z,29
2017-02-11T09:33:07.591Z,29
2017-02-11T09:34:13.592Z,29
2017-02-11T09:35:19.586Z,29
2017-02-11T09:36:25.589Z,28
2017-02-11T09:37:31.590Z,28
2017-02-11T09:38:37.587Z,28
2017-02-11T09:39:43.579Z,28
2017-02-11T09:40:48.489Z,28
2017-02-11T09:41:54.493Z,28
2017-02-11T09:43:00.491Z,28
2017-02-11T09:44:06.488Z,28
2017-02-11T09:45:12.489Z,28
2017-02-11T09:46:18.495Z,28
2017-02-11T09:47:24.494Z,29
2017-02-11T09:48:30.487Z,28
2017-02-11T09:49:36.487Z,28
2017-02-11T09:50:41.826Z,28
2017-02-11T09:51:47.829Z,28
2017-02-11T09:52:53.831Z,28
2017-02-11T09:53:59.831Z,28
2017-02-11T09:55:05.835Z,28
2017-02-11T09:56:11.838Z,28
2017-02-11T09:57:17.839Z,28
2017-02-11T09:58:23.841Z,28
2017-02-11T09:59:29.846Z,28
2017-02-11T10:00:58.240Z,28
2017-02-11T10:02:04.235Z,28
2017-02-11T10:03:09.140Z,28
2017-02-11T10:04:15.144Z,28
2017-02-11T10:05:20.479Z,28
2017-02-11T10:06:26.476Z,28
2017-02-11T10:07:31.381Z,28
2017-02-11T10:08:37.385Z,28
2017-02-11T10:09:43.378Z,28
2017-02-11T10:10:49.381Z,28
2017-02-11T10:11:55.377Z,28
2017-02-11T10:13:01.391Z,28
2017-02-11T10:14:07.380Z,28
2017-02-11T10:15:13.383Z,28
2017-02-11T10:16:19.381Z,28
2017-02-11T10:17:24.717Z,28
2017-02-11T10:18:30.716Z,28
2017-02-11T10:19:36.721Z,28
2017-02-11T10:20:42.723Z,28
2017-02-11T10:21:48.720Z,28
2017-02-11T10:22:54.725Z,28
2017-02-11T10:24:00.729Z,28
2017-02-11T10:25:06.725Z,28
2017-02-11T10:26:12.722Z,28
2017-02-11T10:27:18.722Z,28
2017-02-11T10:28:24.062Z,28
2017-02-11T10:29:30.061Z,28
2017-02-11T10:30:36.062Z,28
2017-02-11T10:31:42.062Z,28
2017-02-11T10:32:48.059Z,28
2017-02-11T10:33:54.071Z,28
2017-02-11T10:35:00.063Z,28
2017-02-11T10:36:06.059Z,28
2017-02-11T10:37:12.045Z,28
2017-02-11T10:38:18.051Z,28
2017-02-11T10:39:24.051Z,28
2017-02-11T10:40:30.047Z,28
2017-02-11T10:41:36.051Z,28
2017-02-11T10:42:42.057Z,28
2017-02-11T10:43:48.053Z,28
2017-02-11T10:44:54.047Z,28
2017-02-11T10:46:00.048Z,28
2017-02-11T10:47:06.045Z,28
2017-02-11T10:48:12.042Z,28
2017-02-11T10:49:18.045Z,28
2017-02-11T10:50:23.377Z,28
2017-02-11T10:51:29.374Z,28
2017-02-11T10:52:35.374Z,28
2017-02-11T10:53:40.708Z,28
2017-02-11T10:54:46.708Z,28
2017-02-11T10:55:52.041Z,28
2017-02-11T10:56:58.039Z,28
2017-02-11T10:58:02.933Z,28
2017-02-11T10:59:08.938Z,28
2017-02-11T11:00:14.942Z,28
2017-02-11T11:01:20.941Z,28
2017-02-11T11:02:26.934Z,28
2017-02-11T11:03:32.929Z,28
2017-02-11T11:04:38.928Z,28
2017-02-11T11:05:43.162Z,28
2017-02-11T11:06:49.158Z,28
2017-02-11T11:07:55.154Z,28
2017-02-11T11:09:01.148Z,28
2017-02-11T11:10:06.485Z,28
2017-02-11T11:11:12.484Z,28
2017-02-11T11:12:18.477Z,28
2017-02-11T11:13:24.484Z,28
2017-02-11T11:14:30.485Z,28
2017-02-11T11:15:36.483Z,28
2017-02-11T11:16:41.817Z,28
2017-02-11T11:17:47.818Z,28
2017-02-11T11:18:53.159Z,28
2017-02-11T11:19:59.155Z,28
2017-02-11T11:21:04.057Z,28
2017-02-11T11:22:10.053Z,28
2017-02-11T11:23:14.952Z,28
2017-02-11T11:24:20.948Z,28
2017-02-11T11:25:26.949Z,28
2017-02-11T11:26:31.852Z,28
2017-02-11T11:27:37.850Z,28
2017-02-11T11:28:42.743Z,28
2017-02-11T11:29:48.745Z,28
2017-02-11T11:30:54.745Z,28
2017-02-11T11:32:00.748Z,28
2017-02-11T11:33:06.740Z,28
2017-02-11T11:34:12.736Z,28
2017-02-11T11:35:18.739Z,28
2017-02-11T11:36:24.740Z,28
2017-02-11T11:37:30.740Z,28
2017-02-11T11:38:36.741Z,28
2017-02-11T11:39:42.075Z,28
2017-02-11T11:40:48.075Z,28
2017-02-11T11:41:54.072Z,28
2017-02-11T11:43:00.074Z,28
2017-02-11T11:44:06.071Z,28
2017-02-11T11:45:12.066Z,28
2017-02-11T11:46:18.058Z,28
2017-02-11T11:47:24.058Z,28
2017-02-11T11:48:28.964Z,28
2017-02-11T11:49:34.955Z,28
2017-02-11T11:50:40.303Z,28
2017-02-11T11:51:46.306Z,28
2017-02-11T11:52:52.309Z,28
2017-02-11T11:53:58.301Z,28
2017-02-11T11:55:04.300Z,28
2017-02-11T11:56:10.295Z,28
2017-02-11T11:57:16.299Z,28
2017-02-11T11:58:22.293Z,28
2017-02-11T11:59:28.294Z,28
2017-02-11T12:00:34.288Z,28
2017-02-11T12:01:40.291Z,28
2017-02-11T12:02:46.297Z,28
2017-02-11T12:03:52.296Z,28
2017-02-11T12:04:58.290Z,28
2017-02-11T12:06:04.295Z,28
2017-02-11T12:07:10.289Z,28
2017-02-11T12:08:16.292Z,28
2017-02-11T12:09:22.291Z,28
2017-02-11T12:10:28.298Z,28
2017-02-11T12:11:34.296Z,28
2017-02-11T12:12:40.292Z,28
2017-02-11T12:13:46.297Z,28
2017-02-11T12:14:51.646Z,28
2017-02-11T12:15:56.987Z,28
2017-02-11T12:17:02.985Z,28
2017-02-11T12:18:08.997Z,28
2017-02-11T12:19:14.994Z,28
2017-02-11T12:20:20.336Z,28
2017-02-11T12:21:26.334Z,28
2017-02-11T12:22:32.334Z,28
2017-02-11T12:23:38.338Z,28
2017-02-11T12:24:44.333Z,28
2017-02-11T12:25:50.335Z,28
2017-02-11T12:26:56.361Z,28
2017-02-11T12:28:02.325Z,28
2017-02-11T12:29:08.326Z,28
2017-02-11T12:30:14.323Z,28
2017-02-11T12:31:20.319Z,28
2017-02-11T12:32:25.649Z,28
2017-02-11T12:33:31.649Z,28
2017-02-11T12:34:37.659Z,28
2017-02-11T12:35:43.004Z,28
2017-02-11T12:36:49.014Z,28
2017-02-11T12:37:53.902Z,28
2017-02-11T12:38:59.920Z,28
2017-02-11T12:40:05.925Z,28
2017-02-11T12:41:11.915Z,28
2017-02-11T12:42:17.915Z,28
2017-02-11T12:43:23.907Z,28
2017-02-11T12:44:29.905Z,28
2017-02-11T12:45:35.905Z,28
2017-02-11T12:46:41.918Z,28
2017-02-11T12:47:47.913Z,28
2017-02-11T12:48:53.931Z,28
2017-02-11T12:49:59.270Z,28
2017-02-11T12:51:05.260Z,28
2017-02-11T12:52:10.599Z,28
2017-02-11T12:53:16.599Z,28
2017-02-11T12:54:22.614Z,28
2017-02-11T12:55:28.614Z,28
2017-02-11T12:56:34.677Z,28
2017-02-11T12:57:40.589Z,28
2017-02-11T12:58:46.588Z,28
2017-02-11T12:59:52.588Z,28
2017-02-11T13:00:58.606Z,28
2017-02-11T13:02:04.583Z,28
2017-02-11T13:03:10.614Z,28
2017-02-11T13:04:16.631Z,28
2017-02-11T13:05:22.605Z,28
2017-02-11T13:06:28.612Z,28
2017-02-11T13:07:34.626Z,28
2017-02-11T13:08:40.588Z,28
2017-02-11T13:09:46.581Z,28
2017-02-11T13:10:52.590Z,28
2017-02-11T13:11:58.580Z,28
2017-02-11T13:13:04.577Z,28
2017-02-11T13:14:10.610Z,28
2017-02-11T13:15:16.612Z,28
2017-02-11T13:16:22.655Z,28
2017-02-11T13:17:27.981Z,28
2017-02-11T13:18:33.988Z,28
2017-02-11T13:19:40.001Z,28
2017-02-11T13:20:45.980Z,28
2017-02-11T13:21:50.960Z,28
2017-02-11T13:22:56.886Z,28
2017-02-11T13:24:02.909Z,28
2017-02-11T13:25:07.807Z,28
2017-02-11T13:26:13.803Z,28
2017-02-11T13:27:19.838Z,28
2017-02-11T13:28:25.152Z,28
2017-02-11T13:29:31.157Z,28
2017-02-11T13:30:36.073Z,28
2017-02-11T13:31:42.079Z,28
2017-02-11T13:32:48.115Z,28
2017-02-11T13:33:54.114Z,28
2017-02-11T13:35:00.120Z,28
2017-02-11T13:36:06.119Z,28
2017-02-11T13:37:12.117Z,28
2017-02-11T13:38:18.123Z,28
2017-02-11T13:39:24.266Z,28
2017-02-11T13:40:30.313Z,28
2017-02-11T13:41:35.523Z,28
2017-02-11T13:42:40.869Z,28
2017-02-11T13:43:46.874Z,28
2017-02-11T13:44:52.876Z,28
2017-02-11T13:45:58.234Z,28
2017-02-11T13:47:04.249Z,28
2017-02-11T13:48:10.230Z,28
2017-02-11T13:49:16.233Z,28
2017-02-11T13:50:22.237Z,28
2017-02-11T13:51:28.235Z,28
2017-02-11T13:52:34.231Z,28
2017-02-11T13:53:40.234Z,28
2017-02-11T13:54:46.234Z,28
2017-02-11T13:55:52.226Z,28
2017-02-11T13:56:58.227Z,28
2017-02-11T13:58:04.230Z,28
2017-02-11T13:59:10.244Z,28
2017-02-11T14:00:16.237Z,28
2017-02-11T14:01:22.234Z,28
2017-02-11T14:02:28.240Z,28
2017-02-11T14:03:34.237Z,28
2017-02-11T14:04:40.245Z,28
2017-02-11T14:05:46.245Z,28
2017-02-11T14:06:52.325Z,28
2017-02-11T14:07:58.386Z,28
2017-02-11T14:09:02.631Z,28
2017-02-11T14:10:08.639Z,28
2017-02-11T14:11:14.638Z,28
2017-02-11T14:12:20.638Z,28
2017-02-11T14:13:26.635Z,28
2017-02-11T14:14:32.634Z,28
2017-02-11T14:15:38.636Z,28
2017-02-11T14:16:44.625Z,28
2017-02-11T14:17:50.629Z,28
2017-02-11T14:18:56.648Z,28
2017-02-11T14:20:02.642Z,28
2017-02-11T14:21:08.638Z,28
2017-02-11T14:22:13.982Z,28
2017-02-11T14:23:19.313Z,28
2017-02-11T14:24:24.220Z,28
2017-02-11T14:25:30.222Z,28
2017-02-11T14:26:36.216Z,28
2017-02-11T14:27:42.220Z,28
2017-02-11T14:28:48.220Z,28
2017-02-11T14:29:54.220Z,28
2017-02-11T14:31:00.222Z,28
2017-02-11T14:32:05.123Z,28
2017-02-11T14:33:10.456Z,28
2017-02-11T14:34:16.457Z,28
2017-02-11T14:35:22.474Z,28
2017-02-11T14:36:28.469Z,28
2017-02-11T14:37:34.463Z,28
2017-02-11T14:38:40.463Z,28
2017-02-11T14:39:46.458Z,28
2017-02-11T14:40:52.459Z,28
2017-02-11T14:41:58.467Z,28
2017-02-11T14:43:04.467Z,28
2017-02-11T14:44:10.462Z,28
2017-02-11T14:45:16.473Z,28
2017-02-11T14:46:22.680Z,28
2017-02-11T14:47:28.675Z,28
2017-02-11T14:48:34.667Z,28
2017-02-11T14:49:40.668Z,28
2017-02-11T14:50:45.570Z,28
2017-02-11T14:51:50.898Z,28
2017-02-11T14:52:56.902Z,28
2017-02-11T14:54:02.239Z,28
2017-02-11T14:55:08.246Z,28
2017-02-11T14:56:14.235Z,28
2017-02-11T14:57:19.577Z,28
2017-02-11T14:58:24.918Z,28
2017-02-11T14:59:30.920Z,28
2017-02-11T15:00:36.910Z,28
2017-02-11T15:01:42.910Z,28
2017-02-11T15:02:48.913Z,28
2017-02-11T15:03:55.100Z,28
2017-02-11T15:05:01.105Z,28
2017-02-11T15:06:07.092Z,28
2017-02-11T15:07:13.099Z,28
2017-02-11T15:08:19.091Z,28
2017-02-11T15:09:23.995Z,28
2017-02-11T15:10:29.992Z,28
2017-02-11T15:11:35.994Z,28
2017-02-11T15:12:41.984Z,28
2017-02-11T15:13:47.984Z,28
2017-02-11T15:14:53.326Z,28
2017-02-11T15:15:59.318Z,28
2017-02-11T15:17:05.315Z,28
2017-02-11T15:18:10.219Z,28
2017-02-11T15:19:16.217Z,28
2017-02-11T15:20:22.215Z,28
2017-02-11T15:21:28.218Z,28
2017-02-11T15:22:34.221Z,29
2017-02-11T15:23:39.551Z,29
2017-02-11T15:24:45.543Z,29
2017-02-11T15:25:51.543Z,29
2017-02-11T15:26:56.874Z,29
2017-02-11T15:28:02.217Z,29
2017-02-11T15:29:08.226Z,30
2017-02-11T15:30:14.231Z,30
2017-02-11T15:31:19.561Z,30
2017-02-11T15:32:25.568Z,30
2017-02-11T15:33:31.572Z,30
2017-02-11T15:34:37.566Z,30
2017-02-11T15:35:43.561Z,30
2017-02-11T15:36:49.567Z,30
2017-02-11T15:37:55.576Z,30
2017-02-11T15:39:00.908Z,30
2017-02-11T15:40:06.250Z,30
2017-02-11T15:41:12.251Z,30
2017-02-11T15:42:17.156Z,30
2017-02-11T15:43:23.155Z,30